createdAt,value
2023-03-23T19:34:23.710Z,14.83
2023-03-23T19:35:25.953Z,14.83
2023-03-23T19:36:24.609Z,14.88
2023-03-23T19:37:24.646Z,14.89
2023-03-23T19:38:24.632Z,14.89
2023-03-23T19:39:25.221Z,14.88
2023-03-23T19:40:39.606Z,14.94
2023-03-23T19:42:24.975Z,14.91
2023-03-23T19:43:25.432Z,14.94
2023-03-23T19:44:25.435Z,14.95
2023-03-23T19:45:25.248Z,14.96
2023-03-23T19:46:25.507Z,14.99
2023-03-23T19:47:24.681Z,14.99
2023-03-23T19:48:24.334Z,15.02
2023-03-23T19:49:24.976Z,14.98
2023-03-23T19:50:25.598Z,15.01
2023-03-23T19:51:24.334Z,15.01
2023-03-23T19:52:25.121Z,14.99
2023-03-23T19:53:24.336Z,15.03
2023-03-23T19:54:24.466Z,15.07
2023-03-23T19:55:24.654Z,15.10
2023-03-23T19:56:25.493Z,15.09
2023-03-23T19:57:24.212Z,15.10
2023-03-23T19:58:24.996Z,15.07
2023-03-23T19:59:24.758Z,15.07
2023-03-23T20:00:25.139Z,15.07
2023-03-23T20:01:24.916Z,15.06
2023-03-23T20:02:24.708Z,15.06
2023-03-23T20:03:24.312Z,15.03
2023-03-23T20:04:24.460Z,15.02
2023-03-23T20:05:23.972Z,15.01
2023-03-23T20:06:24.888Z,15.03
2023-03-23T20:07:26.674Z,15.03
2023-03-23T20:08:25.314Z,15.02
2023-03-23T20:09:25.319Z,15.02
2023-03-23T20:10:24.454Z,15.03
2023-03-23T20:11:24.155Z,15.03
2023-03-23T20:12:25.083Z,15.07
2023-03-23T20:13:24.287Z,15.06
2023-03-23T20:14:25.855Z,15.03
2023-03-23T20:15:24.137Z,15.03
2023-03-23T20:16:24.814Z,14.99
2023-03-23T20:17:25.483Z,15.03
2023-03-23T20:18:24.568Z,15.02
2023-03-23T20:19:24.241Z,15.01
2023-03-23T20:20:23.836Z,15.01
2023-03-23T20:21:25.146Z,14.98
2023-03-23T20:22:24.932Z,14.99
2023-03-23T20:23:25.275Z,14.96
2023-03-23T20:24:24.479Z,14.94
2023-03-23T20:25:24.567Z,14.92
2023-03-23T20:26:23.960Z,14.91
2023-03-23T20:27:24.262Z,14.91
2023-03-23T20:28:24.903Z,14.86
2023-03-23T20:29:24.189Z,14.88
2023-03-23T20:30:24.556Z,14.88
2023-03-23T20:31:24.715Z,14.89
2023-03-23T20:32:24.600Z,14.86
2023-03-23T20:33:24.685Z,14.86
2023-03-23T20:34:24.825Z,14.89
2023-03-23T20:35:25.145Z,14.89
2023-03-23T20:36:24.395Z,14.91
2023-03-23T20:37:24.048Z,14.89
2023-03-23T20:38:24.968Z,14.89
2023-03-23T20:39:23.907Z,14.88
2023-03-23T20:40:24.202Z,14.91
2023-03-23T20:41:24.402Z,14.88
2023-03-23T20:42:24.007Z,14.89
2023-03-23T20:43:24.865Z,14.92
2023-03-23T20:44:25.098Z,14.89
2023-03-23T20:45:24.182Z,14.89
2023-03-23T20:46:24.441Z,14.91
2023-03-23T20:47:24.576Z,14.89
2023-03-23T20:48:24.590Z,14.88
2023-03-23T20:49:24.425Z,14.86
2023-03-23T20:50:24.435Z,14.88
2023-03-23T20:51:24.482Z,14.86
2023-03-23T20:52:24.680Z,14.84
2023-03-23T20:53:23.725Z,14.83
2023-03-23T20:54:23.619Z,14.83
2023-03-23T20:55:24.116Z,14.81
2023-03-23T20:56:24.233Z,14.81
2023-03-23T20:57:23.653Z,14.78
2023-03-23T20:58:23.993Z,14.80
2023-03-23T20:59:24.372Z,14.78
2023-03-23T21:00:23.856Z,14.77
2023-03-23T21:01:24.575Z,14.77
2023-03-23T21:02:23.670Z,14.75
2023-03-23T21:03:24.658Z,14.75
2023-03-23T21:04:24.290Z,14.77
2023-03-23T21:05:24.159Z,14.72
2023-03-23T21:06:23.861Z,14.72
2023-03-23T21:07:24.242Z,14.70
2023-03-23T21:08:23.611Z,14.70
2023-03-23T21:09:24.122Z,14.65
2023-03-23T21:10:23.930Z,14.65
2023-03-23T21:11:24.952Z,14.69
2023-03-23T21:12:23.400Z,14.69
2023-03-23T21:13:23.668Z,14.69
2023-03-23T21:14:23.533Z,14.68
2023-03-23T21:15:23.850Z,14.64
2023-03-23T21:16:23.605Z,14.64
2023-03-23T21:17:24.081Z,14.61
2023-03-23T21:18:24.764Z,14.60
2023-03-23T21:19:23.819Z,14.61
2023-03-23T21:20:23.464Z,14.57
2023-03-23T21:21:23.588Z,14.58
2023-03-23T21:22:23.440Z,14.57
2023-03-23T21:23:23.172Z,14.58
2023-03-23T21:24:23.385Z,14.57
2023-03-23T21:25:34.437Z,14.58
2023-03-23T21:26:23.092Z,14.57
2023-03-23T21:27:23.446Z,14.58
2023-03-23T21:28:23.635Z,14.58
2023-03-23T21:29:23.391Z,14.57
2023-03-23T21:30:22.941Z,14.57
2023-03-23T21:31:23.446Z,14.55
2023-03-23T21:32:22.966Z,14.55
2023-03-23T21:33:23.044Z,14.55
2023-03-23T21:34:22.903Z,14.55
2023-03-23T21:35:23.166Z,14.50
2023-03-23T21:36:22.882Z,14.45
2023-03-23T21:37:22.973Z,14.50
2023-03-23T21:38:23.155Z,14.46
2023-03-23T21:39:22.977Z,14.45
2023-03-23T21:40:22.729Z,14.47
2023-03-23T21:41:23.235Z,14.46
2023-03-23T21:42:22.814Z,14.45
2023-03-23T21:43:23.960Z,14.47
2023-03-23T21:44:22.859Z,14.46
2023-03-23T21:45:22.684Z,14.43
2023-03-23T21:46:22.722Z,14.42
2023-03-23T21:47:23.451Z,14.45
2023-03-23T21:48:22.908Z,14.46
2023-03-23T21:49:24.961Z,14.46
2023-03-23T21:50:22.777Z,14.43
2023-03-23T21:51:23.103Z,14.47
2023-03-23T21:52:23.293Z,14.45
2023-03-23T21:53:22.562Z,14.39
2023-03-23T21:54:22.764Z,14.33
2023-03-23T21:55:23.055Z,14.27
2023-03-23T21:56:22.698Z,14.25
2023-03-23T21:57:22.562Z,14.21
2023-03-23T21:58:23.246Z,14.20
2023-03-23T21:59:22.492Z,14.22
2023-03-23T22:00:23.508Z,14.27
2023-03-23T22:01:22.519Z,14.28
2023-03-23T22:02:23.144Z,14.33
2023-03-23T22:03:22.847Z,14.35
2023-03-23T22:04:22.363Z,14.36
2023-03-23T22:05:22.479Z,14.39
2023-03-23T22:06:22.374Z,14.39
2023-03-23T22:07:22.435Z,14.43
2023-03-23T22:08:22.864Z,14.43
2023-03-23T22:09:22.552Z,14.40
2023-03-23T22:10:22.381Z,14.40
2023-03-23T22:11:23.202Z,14.37
2023-03-23T22:12:23.004Z,14.39
2023-03-23T22:13:22.355Z,14.35
2023-03-23T22:14:22.234Z,14.33
2023-03-23T22:15:22.431Z,14.29
2023-03-23T22:16:22.614Z,14.28
2023-03-23T22:17:22.414Z,14.29
2023-03-23T22:18:22.260Z,14.28
2023-03-23T22:19:22.294Z,14.32
2023-03-23T22:20:22.117Z,14.29
2023-03-23T22:21:22.285Z,14.28
2023-03-23T22:22:22.094Z,14.25
2023-03-23T22:23:22.187Z,14.24
2023-03-23T22:24:22.134Z,14.24
2023-03-23T22:25:22.129Z,14.20
2023-03-23T22:26:22.054Z,14.17
2023-03-23T22:27:22.167Z,14.15
2023-03-23T22:28:22.025Z,14.18
2023-03-23T22:29:22.221Z,14.14
2023-03-23T22:30:22.013Z,14.15
2023-03-23T22:31:22.253Z,14.17
2023-03-23T22:32:21.990Z,14.18
2023-03-23T22:33:22.272Z,14.20
2023-03-23T22:34:21.991Z,14.18
2023-03-23T22:35:22.008Z,14.20
2023-03-23T22:36:22.013Z,14.20
2023-03-23T22:37:22.012Z,14.20
2023-03-23T22:38:21.923Z,14.20
2023-03-23T22:39:22.077Z,14.18
2023-03-23T22:40:22.077Z,14.18
2023-03-23T22:41:21.901Z,14.14
2023-03-23T22:42:22.036Z,14.10
2023-03-23T22:43:21.854Z,14.06
2023-03-23T22:44:22.109Z,14.03
2023-03-23T22:45:21.849Z,14.03
2023-03-23T22:46:21.883Z,13.99
2023-03-23T22:47:21.818Z,13.97
2023-03-23T22:48:21.870Z,13.96
2023-03-23T22:49:21.778Z,13.96
2023-03-23T22:50:22.061Z,13.92
2023-03-23T22:51:21.798Z,13.89
2023-03-23T22:52:21.824Z,13.87
2023-03-23T22:53:21.742Z,13.81
2023-03-23T22:54:21.822Z,13.73
2023-03-23T22:55:21.710Z,13.69
2023-03-23T22:57:24.374Z,13.60
2023-03-23T22:58:25.213Z,13.57
2023-03-23T22:59:25.366Z,13.54
2023-03-23T23:00:25.448Z,13.52
2023-03-23T23:01:25.439Z,13.51
2023-03-23T23:02:25.227Z,13.48
2023-03-23T23:03:25.481Z,13.44
2023-03-23T23:04:25.189Z,13.41
2023-03-23T23:05:25.209Z,13.38
2023-03-23T23:06:25.103Z,13.38
2023-03-23T23:07:25.645Z,13.33
2023-03-23T23:08:25.206Z,13.33
2023-03-23T23:09:25.685Z,13.30
2023-03-23T23:10:25.165Z,13.29
2023-03-23T23:11:25.226Z,13.30
2023-03-23T23:12:25.268Z,13.29
2023-03-23T23:13:25.034Z,13.26
2023-03-23T23:14:25.280Z,13.28
2023-03-23T23:15:25.009Z,13.26
2023-03-23T23:16:25.074Z,13.28
2023-03-23T23:17:25.189Z,13.25
2023-03-23T23:18:25.068Z,13.23
2023-03-23T23:19:25.305Z,13.23
2023-03-23T23:20:25.036Z,13.25
2023-03-23T23:21:24.987Z,13.25
2023-03-23T23:22:24.997Z,13.28
2023-03-23T23:23:24.939Z,13.26
2023-03-23T23:24:25.054Z,13.22
2023-03-23T23:25:24.921Z,13.23
2023-03-23T23:26:24.962Z,13.22
2023-03-23T23:27:25.652Z,13.17
2023-03-23T23:28:24.962Z,13.14
2023-03-23T23:29:24.896Z,13.15
2023-03-23T23:30:25.132Z,13.17
2023-03-23T23:31:25.027Z,13.14
2023-03-23T23:32:24.889Z,13.12
2023-03-23T23:33:24.920Z,13.15
2023-03-23T23:34:24.737Z,13.15
2023-03-23T23:35:24.814Z,13.17
2023-03-23T23:36:24.751Z,13.19
2023-03-23T23:37:24.800Z,13.20
2023-03-23T23:38:24.978Z,13.20
2023-03-23T23:39:24.831Z,13.19
2023-03-23T23:40:24.841Z,13.19
2023-03-23T23:41:24.660Z,13.19
2023-03-23T23:42:25.695Z,13.15
2023-03-23T23:43:24.684Z,13.15
2023-03-23T23:44:24.853Z,13.14
2023-03-23T23:45:24.611Z,13.15
2023-03-23T23:46:26.198Z,13.14
2023-03-23T23:47:24.642Z,13.17
2023-03-23T23:48:24.803Z,13.19
2023-03-23T23:49:24.561Z,13.17
2023-03-23T23:50:24.730Z,13.22
2023-03-23T23:51:24.585Z,13.17
2023-03-23T23:52:24.581Z,13.17
2023-03-23T23:53:24.501Z,13.19
2023-03-23T23:54:24.771Z,13.15
2023-03-23T23:55:24.504Z,13.14
2023-03-23T23:56:24.529Z,13.17
2023-03-23T23:57:24.498Z,13.14
2023-03-23T23:58:24.506Z,13.14
2023-03-23T23:59:24.468Z,13.15
